Time;durP1;ratioP1;P1;durP2;ratioP2;P2;SDS_P1;SDS_P2;PMS_P1;PMS_P2;Temp;Humidity;BMP_temperature;BMP_pressure;BME280_temperature;BME280_humidity;BME280_pressure;Samples;Min_cycle;Max_cycle;Signal;HPM_P1;HPM_P2
2021/07/27 00:01:08;;;;;;;3.80;3.50;;;17.90;99.90;;;;;;5075563;28;20194;-76
2021/07/27 00:03:37;;;;;;;4.75;3.17;;;17.90;99.90;;;;;;5075673;28;20284;-76
2021/07/27 00:06:04;;;;;;;3.10;2.55;;;17.90;99.90;;;;;;5075778;28;20202;-76
2021/07/27 00:08:31;;;;;;;3.50;3.20;;;17.90;99.90;;;;;;5075197;28;20207;-75
2021/07/27 00:11:00;;;;;;;3.38;2.83;;;17.90;99.90;;;;;;5075541;28;20221;-74
2021/07/27 00:13:26;;;;;;;4.30;3.20;;;18.00;99.90;;;;;;5075345;28;20614;-76
2021/07/27 00:15:53;;;;;;;4.35;3.45;;;18.10;99.90;;;;;;5074588;28;20619;-75
2021/07/27 00:18:20;;;;;;;3.50;3.20;;;18.10;99.90;;;;;;5074753;28;20220;-76
2021/07/27 00:20:49;;;;;;;3.80;3.50;;;18.10;99.90;;;;;;5074392;28;20528;-74
2021/07/27 00:23:16;;;;;;;3.43;3.13;;;18.10;99.90;;;;;;5074728;28;20226;-74
2021/07/27 00:25:43;;;;;;;3.67;3.15;;;18.20;99.90;;;;;;5074422;28;20523;-74
2021/07/27 00:28:10;;;;;;;3.17;2.97;;;18.20;99.90;;;;;;5074591;28;20695;-73
2021/07/27 00:30:37;;;;;;;4.47;3.50;;;18.20;99.90;;;;;;5074214;28;20227;-73
2021/07/27 00:33:04;;;;;;;4.45;3.22;;;18.20;99.90;;;;;;5074490;28;20500;-76
2021/07/27 00:35:32;;;;;;;4.07;3.50;;;18.20;99.90;;;;;;5074164;28;20231;-75
2021/07/27 00:38:08;;;;;;;4.00;3.60;;;18.10;99.90;;;;;;5074753;28;20211;-76
2021/07/27 00:40:36;;;;;;;4.18;3.78;;;18.10;99.90;;;;;;5074432;28;20566;-75
2021/07/27 00:43:05;;;;;;;4.57;4.17;;;18.00;99.90;;;;;;5073927;28;20732;-75
2021/07/27 00:45:32;;;;;;;3.92;3.40;;;17.90;99.90;;;;;;5073908;28;20449;-75
2021/07/27 00:47:59;;;;;;;5.75;3.78;;;17.80;99.90;;;;;;5073931;28;20677;-75
2021/07/27 00:50:26;;;;;;;4.78;3.78;;;17.70;99.90;;;;;;5073880;28;20772;-75
2021/07/27 00:52:56;;;;;;;4.70;4.20;;;17.70;99.90;;;;;;5074024;28;20223;-74
2021/07/27 00:55:25;;;;;;;3.83;3.53;;;17.90;99.90;;;;;;5073743;28;20584;-74
2021/07/27 00:57:52;;;;;;;3.42;3.13;;;18.00;99.90;;;;;;5073922;28;20554;-75
2021/07/27 01:00:19;;;;;;;3.42;3.13;;;18.10;99.90;;;;;;5073833;28;20198;-74
2021/07/27 01:02:45;;;;;;;2.90;2.70;;;18.10;99.90;;;;;;5073775;28;20309;-75
2021/07/27 01:05:13;;;;;;;4.35;3.42;;;18.20;99.90;;;;;;5073500;28;20213;-75
2021/07/27 01:07:40;;;;;;;4.70;3.78;;;18.10;99.90;;;;;;5073961;28;20225;-75
2021/07/27 01:10:09;;;;;;;4.35;3.85;;;18.10;99.90;;;;;;5073580;28;20314;-75
2021/07/27 01:12:38;;;;;;;4.32;3.63;;;18.00;99.90;;;;;;5073544;28;20265;-75
2021/07/27 01:15:06;;;;;;;3.50;3.20;;;18.00;99.90;;;;;;5073446;28;20203;-75
2021/07/27 01:17:33;;;;;;;4.50;4.07;;;18.00;99.90;;;;;;5073467;28;20449;-75
2021/07/27 01:20:04;;;;;;;3.40;3.10;;;18.00;99.90;;;;;;5073209;28;20252;-75
2021/07/27 01:39:18;;;;;;;3.70;3.40;;;17.40;99.90;;;;;;5073279;28;20308;-75
2021/07/27 01:44:29;;;;;;;4.85;3.92;;;17.50;99.90;;;;;;5072950;28;20198;-76
2021/07/27 01:46:56;;;;;;;5.35;4.63;;;17.40;99.90;;;;;;5072993;28;20195;-75
2021/07/27 01:49:23;;;;;;;3.88;3.50;;;17.50;99.90;;;;;;5073289;28;20617;-76
2021/07/27 01:51:52;;;;;;;4.28;3.60;;;17.60;99.90;;;;;;5072527;28;20630;-75
2021/07/27 01:54:28;;;;;;;3.92;3.53;;;17.70;99.90;;;;;;5072949;28;20209;-74
2021/07/27 01:56:56;;;;;;;4.95;4.55;;;17.70;99.90;;;;;;5072611;28;20229;-74
2021/07/27 01:59:23;;;;;;;4.28;3.88;;;17.70;99.90;;;;;;5072742;28;20203;-76
2021/07/27 02:01:50;;;;;;;4.28;3.88;;;17.70;99.90;;;;;;5072514;28;20232;-76
2021/07/27 02:04:17;;;;;;;4.85;4.25;;;17.70;99.90;;;;;;5072420;28;20202;-76
2021/07/27 02:06:43;;;;;;;4.70;4.03;;;17.50;99.90;;;;;;5072380;28;20297;-76
2021/07/27 02:09:10;;;;;;;4.43;4.03;;;17.50;99.90;;;;;;5072598;28;20289;-73
2021/07/27 02:11:41;;;;;;;6.00;4.65;;;17.40;99.90;;;;;;5072018;28;20223;-75
2021/07/27 02:14:11;;;;;;;6.47;4.50;;;17.40;99.90;;;;;;5072493;28;20206;-74
2021/07/27 02:16:38;;;;;;;5.47;4.78;;;17.40;99.90;;;;;;5072243;28;20668;-74
2021/07/27 02:19:05;;;;;;;4.40;4.00;;;17.60;99.90;;;;;;5072537;28;20298;-73
2021/07/27 02:21:32;;;;;;;5.60;4.47;;;17.60;99.90;;;;;;5072050;28;20198;-73
2021/07/27 02:24:00;;;;;;;5.03;4.50;;;17.60;99.90;;;;;;5072016;28;20289;-75
2021/07/27 02:26:28;;;;;;;4.53;4.13;;;17.60;99.90;;;;;;5072399;28;20202;-73
2021/07/27 02:28:56;;;;;;;4.93;4.47;;;17.70;99.90;;;;;;5072316;28;20287;-73
2021/07/27 02:31:28;;;;;;;4.38;3.97;;;17.70;99.90;;;;;;5072039;28;20634;-72
2021/07/27 02:33:55;;;;;;;5.80;4.78;;;17.80;99.90;;;;;;5072057;28;20198;-72
2021/07/27 02:36:21;;;;;;;5.65;4.53;;;17.70;99.90;;;;;;5071900;28;20293;-72
2021/07/27 02:38:49;;;;;;;4.80;4.40;;;17.70;99.90;;;;;;5072171;28;20297;-74
2021/07/27 02:41:30;;;;;;;4.57;4.10;;;17.70;99.90;;;;;;5072326;28;20289;-72
2021/07/27 02:43:58;;;;;;;4.95;4.30;;;17.70;99.90;;;;;;5071848;28;20261;-74
2021/07/27 02:46:25;;;;;;;5.10;4.60;;;17.70;99.90;;;;;;5072012;28;20290;-72
2021/07/27 02:49:01;;;;;;;4.82;4.20;;;17.60;99.90;;;;;;5072049;28;20289;-72
2021/07/27 02:51:28;;;;;;;6.55;4.60;;;17.50;99.90;;;;;;5072007;28;20203;-73
2021/07/27 02:53:55;;;;;;;5.15;4.60;;;17.50;99.90;;;;;;5071676;28;20226;-74
2021/07/27 02:56:22;;;;;;;5.78;4.70;;;17.50;99.90;;;;;;5071886;28;20293;-73
2021/07/27 02:58:49;;;;;;;6.63;4.05;;;17.50;99.90;;;;;;5072158;28;20203;-73
2021/07/27 03:01:17;;;;;;;4.95;4.45;;;17.40;99.90;;;;;;5071711;28;20289;-73
2021/07/27 03:03:43;;;;;;;5.53;4.70;;;17.40;99.90;;;;;;5072924;28;20318;-72
2021/07/27 03:06:12;;;;;;;5.70;4.65;;;17.30;99.90;;;;;;5073326;28;20202;-72
2021/07/27 03:09:02;;;;;;;4.82;4.25;;;17.20;99.90;;;;;;5073388;28;20206;-71
2021/07/27 03:11:28;;;;;;;5.05;4.55;;;17.10;99.90;;;;;;5072920;28;20734;-71
2021/07/27 03:13:55;;;;;;;6.22;4.80;;;17.10;99.90;;;;;;5073604;28;20237;-71
2021/07/27 03:16:25;;;;;;;5.22;4.72;;;17.10;99.90;;;;;;5072888;28;20233;-72
2021/07/27 03:18:52;;;;;;;5.30;4.80;;;17.20;99.90;;;;;;5073159;28;20294;-72
2021/07/27 03:21:21;;;;;;;7.47;4.90;;;17.20;99.90;;;;;;5073002;28;20684;-71
2021/07/27 03:26:24;;;;;;;5.75;4.68;;;17.50;99.90;;;;;;5378958;23;20466;-71
2021/07/27 03:28:52;;;;;;;5.10;4.60;;;17.60;99.90;;;;;;5054226;28;20209;-71
2021/07/27 03:31:19;;;;;;;5.88;4.90;;;17.70;99.90;;;;;;5052907;28;20231;-71
2021/07/27 03:33:47;;;;;;;5.78;5.10;;;17.70;99.90;;;;;;5053238;28;20261;-71
2021/07/27 03:36:14;;;;;;;5.68;4.63;;;17.70;99.90;;;;;;5052723;28;20229;-71
2021/07/27 03:38:42;;;;;;;5.13;4.63;;;17.70;99.90;;;;;;5053649;28;20294;-71
2021/07/27 03:41:09;;;;;;;6.05;4.63;;;17.70;99.90;;;;;;5053581;28;20195;-71
2021/07/27 03:43:37;;;;;;;4.60;4.20;;;17.70;99.90;;;;;;5053301;28;20671;-70
2021/07/27 03:46:04;;;;;;;6.35;4.65;;;17.80;99.90;;;;;;5052443;28;20230;-70
2021/07/27 03:48:31;;;;;;;5.60;4.95;;;17.80;99.90;;;;;;5053245;28;20200;-70
2021/07/27 03:50:59;;;;;;;6.55;5.30;;;17.90;99.90;;;;;;5056604;28;20230;-70
2021/07/27 03:53:26;;;;;;;5.25;4.38;;;17.90;99.90;;;;;;5056630;28;20200;-70
2021/07/27 03:55:53;;;;;;;4.90;4.43;;;17.90;99.90;;;;;;5055773;28;20314;-71
2021/07/27 03:58:21;;;;;;;4.70;4.30;;;18.00;99.90;;;;;;5056888;28;20285;-71
2021/07/27 04:00:47;;;;;;;5.05;4.65;;;18.00;99.90;;;;;;5056278;28;20290;-70
2021/07/27 04:03:14;;;;;;;5.28;4.65;;;17.90;99.90;;;;;;5056530;28;20225;-71
2021/07/27 04:05:43;;;;;;;5.53;4.47;;;17.80;99.90;;;;;;5055675;28;20211;-70
2021/07/27 04:08:11;;;;;;;5.50;4.03;;;17.90;99.90;;;;;;5056771;28;20214;-70
2021/07/27 04:10:38;;;;;;;5.13;4.57;;;17.80;99.90;;;;;;5056443;28;20220;-70
2021/07/27 04:13:05;;;;;;;5.15;4.40;;;17.70;99.90;;;;;;5056121;28;20217;-71
2021/07/27 04:15:42;;;;;;;6.43;5.35;;;17.50;99.90;;;;;;5055546;28;20254;-70
2021/07/27 04:18:09;;;;;;;5.10;4.60;;;17.30;99.90;;;;;;5056503;28;20207;-72
2021/07/27 04:20:36;;;;;;;5.25;4.75;;;17.30;99.90;;;;;;5056260;28;20195;-70
2021/07/27 04:23:03;;;;;;;4.90;4.40;;;17.30;99.90;;;;;;5056303;28;20210;-70
2021/07/27 04:25:32;;;;;;;6.90;5.45;;;17.40;99.90;;;;;;5055364;28;20208;-70
2021/07/27 04:27:59;;;;;;;5.50;5.00;;;17.50;99.90;;;;;;5056145;28;20715;-71
2021/07/27 04:30:26;;;;;;;5.38;4.63;;;17.50;99.90;;;;;;5055854;28;20304;-71
2021/07/27 04:32:53;;;;;;;5.78;5.13;;;17.50;99.90;;;;;;5055897;28;20645;-72
2021/07/27 04:35:20;;;;;;;7.25;5.90;;;17.50;99.90;;;;;;5055500;28;20580;-70
2021/07/27 04:37:46;;;;;;;5.60;5.00;;;17.40;99.90;;;;;;5056011;28;20251;-72
2021/07/27 04:40:14;;;;;;;6.85;5.43;;;17.40;99.90;;;;;;5055587;28;20209;-72
2021/07/27 04:42:43;;;;;;;6.60;5.82;;;17.20;99.90;;;;;;5055336;28;20203;-72
2021/07/27 04:45:11;;;;;;;6.53;5.45;;;17.30;99.90;;;;;;5055274;28;20568;-72
2021/07/27 04:47:37;;;;;;;5.72;4.90;;;17.40;99.90;;;;;;5055771;28;20581;-73
2021/07/27 04:50:06;;;;;;;5.80;5.05;;;17.50;99.90;;;;;;5056099;28;20544;-73
2021/07/27 04:52:32;;;;;;;7.15;4.63;;;17.50;99.90;;;;;;5055449;28;20237;-72
2021/07/27 04:54:59;;;;;;;6.72;5.15;;;17.60;99.90;;;;;;5054891;28;20203;-72
2021/07/27 04:57:26;;;;;;;9.45;5.32;;;17.60;99.90;;;;;;5055741;28;20613;-73
2021/07/27 04:59:54;;;;;;;5.97;4.97;;;17.50;99.90;;;;;;5055064;28;20222;-73
2021/07/27 05:02:22;;;;;;;5.97;5.38;;;17.40;99.90;;;;;;5054760;28;20290;-73
2021/07/27 05:04:49;;;;;;;7.55;5.72;;;17.40;99.90;;;;;;5055315;28;20204;-72
2021/07/27 05:07:16;;;;;;;7.55;6.55;;;17.30;99.90;;;;;;5055259;28;20255;-73
2021/07/27 05:09:43;;;;;;;5.97;5.38;;;17.40;99.90;;;;;;5055573;28;20544;-73
2021/07/27 05:12:10;;;;;;;5.82;5.22;;;17.50;99.90;;;;;;5055325;28;20227;-73
2021/07/27 05:14:36;;;;;;;7.40;5.80;;;17.60;99.90;;;;;;5055092;28;20231;-73
2021/07/27 05:17:09;;;;;;;5.40;4.90;;;17.70;99.90;;;;;;5054809;28;20307;-72
2021/07/27 05:19:36;;;;;;;6.60;5.90;;;17.80;99.90;;;;;;5055127;28;20563;-72
2021/07/27 05:22:03;;;;;;;5.93;5.32;;;17.90;99.90;;;;;;5054916;28;20664;-73
2021/07/27 05:24:29;;;;;;;6.10;5.40;;;18.00;99.90;;;;;;5055176;28;20207;-73
2021/07/27 05:26:56;;;;;;;5.72;4.60;;;18.00;99.90;;;;;;5054150;28;20322;-74
2021/07/27 05:29:23;;;;;;;5.38;4.70;;;18.00;99.90;;;;;;5055236;28;20294;-72
2021/07/27 05:31:50;;;;;;;7.45;6.22;;;18.00;99.90;;;;;;5054770;28;20255;-73
2021/07/27 05:34:18;;;;;;;6.20;5.60;;;17.90;99.90;;;;;;5055014;28;20206;-73
2021/07/27 05:36:45;;;;;;;6.70;5.53;;;17.70;99.90;;;;;;5054108;28;20306;-72
2021/07/27 05:39:12;;;;;;;7.50;5.35;;;17.50;99.90;;;;;;5054828;28;20295;-73
2021/07/27 05:41:39;;;;;;;6.05;5.45;;;17.40;99.90;;;;;;5054685;28;20199;-73
2021/07/27 05:44:06;;;;;;;5.93;4.93;;;17.40;99.90;;;;;;5055292;28;20207;-72
2021/07/27 05:46:33;;;;;;;7.22;5.82;;;17.40;99.90;;;;;;5054311;28;20226;-72
2021/07/27 05:49:01;;;;;;;7.10;6.10;;;17.40;99.90;;;;;;5055139;28;20206;-73
2021/07/27 05:51:29;;;;;;;6.60;5.70;;;17.40;99.90;;;;;;5054927;28;20234;-73
2021/07/27 05:53:56;;;;;;;8.25;6.57;;;17.30;99.90;;;;;;5055242;28;20626;-73
2021/07/27 05:56:23;;;;;;;6.00;5.40;;;17.30;99.90;;;;;;5054081;28;20220;-72
2021/07/27 05:58:49;;;;;;;6.90;6.10;;;17.30;99.90;;;;;;5055379;28;20293;-73
2021/07/27 06:01:16;;;;;;;6.40;5.38;;;17.30;99.90;;;;;;5054326;28;20295;-73
2021/07/27 06:03:43;;;;;;;6.63;6.03;;;17.40;99.90;;;;;;5054594;28;20246;-73
2021/07/27 06:06:10;;;;;;;9.50;6.28;;;17.50;99.90;;;;;;5054277;28;20231;-72
2021/07/27 06:08:38;;;;;;;6.35;5.63;;;17.50;99.90;;;;;;5054980;28;20544;-73
2021/07/27 06:11:06;;;;;;;5.72;4.93;;;17.60;99.90;;;;;;5054760;28;20289;-73
2021/07/27 06:13:33;;;;;;;7.65;6.00;;;17.60;99.90;;;;;;5054241;28;20543;-73
2021/07/27 06:16:04;;;;;;;8.23;5.57;;;17.70;99.90;;;;;;5053650;28;20227;-72
2021/07/27 06:18:31;;;;;;;7.00;4.97;;;18.00;99.90;;;;;;5054257;28;20215;-73
2021/07/27 06:20:58;;;;;;;6.75;5.32;;;18.20;99.90;;;;;;5054337;28;20207;-73
2021/07/27 06:23:24;;;;;;;6.80;5.20;;;18.40;99.90;;;;;;5054330;28;20207;-73
2021/07/27 06:25:53;;;;;;;6.00;4.82;;;18.60;99.90;;;;;;5053509;28;20660;-72
2021/07/27 06:28:20;;;;;;;7.00;5.85;;;18.80;99.90;;;;;;5054215;28;20301;-73
2021/07/27 06:30:46;;;;;;;5.43;4.50;;;18.90;99.90;;;;;;5054143;28;20564;-73
2021/07/27 06:33:13;;;;;;;6.03;5.28;;;19.10;99.90;;;;;;5053981;28;20485;-73
2021/07/27 06:35:40;;;;;;;7.80;5.70;;;19.30;99.90;;;;;;5053273;28;20204;-73
2021/07/27 06:38:07;;;;;;;5.53;4.87;;;19.40;99.90;;;;;;5054063;28;20481;-73
2021/07/27 06:40:34;;;;;;;4.90;4.40;;;19.40;99.90;;;;;;5054129;28;20534;-73
2021/07/27 06:43:02;;;;;;;5.13;4.63;;;19.40;99.90;;;;;;5053605;28;20444;-73
2021/07/27 06:45:29;;;;;;;5.93;4.83;;;19.50;99.90;;;;;;5053176;28;20887;-72
2021/07/27 06:47:56;;;;;;;7.07;5.00;;;19.50;99.90;;;;;;5053511;28;20453;-72
2021/07/27 06:50:22;;;;;;;5.90;5.20;;;19.60;99.90;;;;;;5053736;28;20442;-72
2021/07/27 06:52:49;;;;;;;5.40;4.90;;;19.60;99.90;;;;;;5054017;28;20497;-73
2021/07/27 06:55:19;;;;;;;4.80;4.30;;;19.70;99.90;;;;;;5053465;28;20519;-73
2021/07/27 06:57:46;;;;;;;5.97;5.40;;;19.70;99.90;;;;;;5053807;28;20913;-72
2021/07/27 07:00:15;;;;;;;5.37;4.80;;;19.70;99.90;;;;;;5053754;28;20467;-72
2021/07/27 07:02:42;;;;;;;4.73;4.27;;;19.80;99.90;;;;;;5053632;28;20774;-73
2021/07/27 07:05:10;;;;;;;4.87;4.47;;;19.90;99.90;;;;;;5052857;28;20446;-72
2021/07/27 07:07:37;;;;;;;5.23;4.80;;;19.90;99.90;;;;;;5053991;28;20469;-72
2021/07/27 07:10:05;;;;;;;5.67;4.70;;;20.10;99.90;;;;;;5053406;28;20850;-73
2021/07/27 07:12:31;;;;;;;6.00;4.63;;;20.20;99.90;;;;;;5053478;28;20488;-73
2021/07/27 07:14:58;;;;;;;4.47;4.07;;;20.30;99.90;;;;;;5053431;28;20543;-72
2021/07/27 07:17:26;;;;;;;5.43;4.73;;;20.40;99.90;;;;;;5053789;28;20468;-73
2021/07/27 07:19:53;;;;;;;4.73;4.30;;;20.60;99.90;;;;;;5053662;28;20537;-72
2021/07/27 07:22:20;;;;;;;5.13;4.10;;;20.80;99.90;;;;;;5054061;28;20528;-72
2021/07/27 07:24:47;;;;;;;7.83;4.53;;;20.90;99.90;;;;;;5055345;28;20440;-72
2021/07/27 07:27:15;;;;;;;6.30;4.43;;;21.10;99.90;;;;;;5057024;28;20485;-72
2021/07/27 07:29:44;;;;;;;4.63;4.23;;;21.30;99.90;;;;;;5057490;28;20919;-72
2021/07/27 07:32:11;;;;;;;5.00;4.50;;;21.60;99.90;;;;;;5057302;28;20477;-73
2021/07/27 07:34:39;;;;;;;5.10;4.17;;;21.80;99.90;;;;;;5057507;28;20438;-72
2021/07/27 07:37:08;;;;;;;4.87;4.40;;;21.80;99.90;;;;;;5056348;28;20474;-72
2021/07/27 07:39:35;;;;;;;4.27;3.90;;;21.70;99.90;;;;;;5051385;28;20471;-73
2021/07/27 07:42:04;;;;;;;4.97;4.47;;;21.60;99.90;;;;;;5064497;28;20819;-73
2021/07/27 07:44:30;;;;;;;4.53;4.10;;;21.50;99.90;;;;;;5055487;28;20453;-73
2021/07/27 07:46:57;;;;;;;4.47;4.07;;;21.40;99.90;;;;;;5055239;28;20492;-73
2021/07/27 07:49:24;;;;;;;4.77;4.37;;;21.30;99.90;;;;;;5055498;28;20814;-73
2021/07/27 07:51:53;;;;;;;5.53;4.90;;;21.30;99.90;;;;;;5055518;28;20489;-73
2021/07/27 07:54:22;;;;;;;5.73;4.30;;;21.50;99.90;;;;;;5055197;28;20461;-73
2021/07/27 07:56:49;;;;;;;5.07;4.57;;;21.70;99.90;;;;;;5055245;28;20464;-73
2021/07/27 07:59:16;;;;;;;4.90;4.40;;;22.00;99.90;;;;;;5055477;28;20936;-73
2021/07/27 08:01:45;;;;;;;5.20;4.33;;;22.50;99.90;;;;;;5055036;28;20526;-73
2021/07/27 08:04:11;;;;;;;5.90;4.33;;;23.00;99.90;;;;;;5054827;28;20541;-73
2021/07/27 08:06:38;;;;;;;4.33;3.93;;;23.30;99.90;;;;;;5055167;28;20502;-73
2021/07/27 08:09:07;;;;;;;4.07;3.77;;;23.50;99.90;;;;;;5054856;28;20527;-77
2021/07/27 08:11:34;;;;;;;4.40;4.00;;;23.80;99.90;;;;;;5055003;28;20544;-76
2021/07/27 08:14:01;;;;;;;4.07;3.67;;;24.00;99.90;;;;;;5054620;28;20867;-76
2021/07/27 08:16:28;;;;;;;4.10;3.70;;;24.10;99.90;;;;;;5054311;28;20481;-77
2021/07/27 08:18:55;;;;;;;3.97;3.50;;;24.40;99.90;;;;;;5055138;28;20451;-77
2021/07/27 08:21:25;;;;;;;4.50;4.10;;;25.00;99.90;;;;;;5054720;28;20459;-73
2021/07/27 08:23:52;;;;;;;4.73;4.30;;;25.00;99.90;;;;;;5054701;28;20540;-73
2021/07/27 08:26:20;;;;;;;5.10;4.20;;;24.60;99.90;;;;;;5054121;28;20986;-74
2021/07/27 08:28:47;;;;;;;4.57;4.03;;;24.30;99.90;;;;;;5054539;28;20448;-73
2021/07/27 08:31:14;;;;;;;4.90;4.40;;;23.90;99.90;;;;;;5054476;28;20458;-73
2021/07/27 08:33:41;;;;;;;4.80;4.30;;;23.40;99.90;;;;;;5054581;28;20544;-73
2021/07/27 08:36:08;;;;;;;6.63;4.60;;;22.90;99.90;;;;;;5054043;28;20471;-73
2021/07/27 08:38:35;;;;;;;5.47;4.90;;;22.50;99.90;;;;;;5054487;28;20441;-74
2021/07/27 08:41:04;;;;;;;7.10;4.57;;;22.50;99.90;;;;;;5054424;28;20450;-74
2021/07/27 08:43:32;;;;;;;4.90;4.50;;;22.40;99.90;;;;;;5054147;28;20443;-74
2021/07/27 08:46:00;;;;;;;5.20;4.70;;;22.50;99.90;;;;;;5053927;28;21037;-73
2021/07/27 08:48:27;;;;;;;5.20;4.70;;;22.50;99.90;;;;;;5054348;28;20522;-73
2021/07/27 08:50:54;;;;;;;5.43;4.90;;;22.50;99.90;;;;;;5054140;28;20451;-73
2021/07/27 08:53:21;;;;;;;5.83;4.90;;;23.00;99.90;;;;;;5054176;28;20483;-73
2021/07/27 08:55:48;;;;;;;5.33;4.83;;;23.30;99.90;;;;;;5053845;28;20555;-73
2021/07/27 08:58:17;;;;;;;5.67;4.70;;;23.40;99.90;;;;;;5053764;28;20534;-73
2021/07/27 09:00:45;;;;;;;4.30;3.60;;;24.10;99.90;;;;;;5054190;28;20484;-73
2021/07/27 09:03:14;;;;;;;6.40;4.77;;;24.90;99.90;;;;;;5054060;28;20533;-73
2021/07/27 09:05:43;;;;;;;4.60;4.20;;;25.90;99.90;;;;;;5054855;28;20457;-72
2021/07/27 09:08:11;;;;;;;5.50;5.00;;;27.00;99.90;;;;;;5055666;28;20450;-71
2021/07/27 09:10:40;;;;;;;4.80;4.40;;;27.10;99.90;;;;;;5055403;28;20446;-71
2021/07/27 09:13:08;;;;;;;5.07;4.30;;;27.80;99.90;;;;;;5054710;28;20491;-71
2021/07/27 09:15:36;;;;;;;6.07;5.47;;;29.00;99.90;;;;;;5054627;28;20529;-70
2021/07/27 09:18:06;;;;;;;4.90;4.50;;;29.00;98.60;;;;;;5055271;28;20545;-71
2021/07/27 09:20:35;;;;;;;5.47;4.67;;;28.10;99.20;;;;;;5055137;28;20448;-71
2021/07/27 09:23:03;;;;;;;5.20;4.70;;;27.70;99.90;;;;;;5055189;28;20481;-71
2021/07/27 09:25:31;;;;;;;4.90;4.40;;;27.10;99.90;;;;;;5054266;28;20781;-70
2021/07/27 09:28:08;;;;;;;5.23;4.73;;;27.60;99.90;;;;;;5054610;28;20458;-71
2021/07/27 09:30:36;;;;;;;4.40;4.00;;;27.00;99.90;;;;;;5054605;28;20787;-70
2021/07/27 09:33:06;;;;;;;5.00;4.00;;;26.60;99.90;;;;;;5054798;28;20514;-71
2021/07/27 09:35:34;;;;;;;5.17;4.67;;;26.60;99.90;;;;;;5054445;28;20788;-71
2021/07/27 09:38:09;;;;;;;4.93;4.43;;;26.10;99.90;;;;;;5054473;28;20467;-71
2021/07/27 09:40:37;;;;;;;6.27;5.20;;;25.60;99.90;;;;;;5054346;28;20992;-70
2021/07/27 09:43:05;;;;;;;6.10;5.50;;;25.20;99.90;;;;;;5054627;28;20438;-71
2021/07/27 09:45:32;;;;;;;5.00;4.60;;;24.60;99.90;;;;;;5054039;28;21056;-70
2021/07/27 09:47:59;;;;;;;4.60;4.10;;;25.10;99.90;;;;;;5054354;28;20447;-71
2021/07/27 09:50:28;;;;;;;4.60;4.20;;;25.70;99.90;;;;;;5054199;28;20445;-71
2021/07/27 09:52:54;;;;;;;4.37;3.83;;;27.00;99.90;;;;;;5054227;28;20565;-71
2021/07/27 09:55:23;;;;;;;4.87;4.40;;;28.50;99.90;;;;;;5053793;28;20447;-71
2021/07/27 09:57:52;;;;;;;4.97;4.57;;;29.20;99.90;;;;;;5054505;28;20462;-71
2021/07/27 10:00:19;;;;;;;4.67;4.23;;;30.30;95.60;;;;;;5054357;28;20529;-71
2021/07/27 10:02:48;;;;;;;4.13;3.83;;;29.40;95.50;;;;;;5054378;28;20938;-71
2021/07/27 10:05:22;;;;;;;5.00;4.60;;;29.00;96.70;;;;;;5053851;28;20459;-71
2021/07/27 10:07:57;;;;;;;5.57;4.57;;;28.40;98.90;;;;;;5053896;28;20890;-71
2021/07/27 10:10:40;;;;;;;4.77;4.33;;;28.20;98.50;;;;;;5054243;28;20527;-71
2021/07/27 10:13:12;;;;;;;5.20;4.70;;;28.80;97.70;;;;;;5053655;28;20525;-71
2021/07/27 10:15:41;;;;;;;4.67;4.27;;;29.90;92.90;;;;;;5053620;28;20827;-71
2021/07/27 10:18:09;;;;;;;5.20;4.70;;;30.50;90.80;;;;;;5054096;28;20454;-71
2021/07/27 10:20:36;;;;;;;5.00;4.57;;;30.50;90.60;;;;;;5053992;28;20541;-71
2021/07/27 10:23:15;;;;;;;4.70;4.10;;;30.50;89.10;;;;;;5053928;28;20442;-71
2021/07/27 10:25:56;;;;;;;4.67;4.27;;;30.00;91.00;;;;;;5053876;28;20461;-71
2021/07/27 10:28:24;;;;;;;4.63;4.27;;;29.60;95.10;;;;;;5053307;28;20464;-71
2021/07/27 10:31:02;;;;;;;4.80;4.40;;;30.10;96.10;;;;;;5053830;28;20542;-71
2021/07/27 10:33:29;;;;;;;4.73;4.33;;;30.60;93.50;;;;;;5053909;28;20564;-72
2021/07/27 10:35:56;;;;;;;4.53;4.13;;;31.30;90.40;;;;;;5053394;28;20470;-71
2021/07/27 10:38:35;;;;;;;4.50;4.10;;;31.60;90.70;;;;;;5053317;28;20458;-71
2021/07/27 10:41:14;;;;;;;4.77;4.37;;;31.30;91.10;;;;;;5053758;28;20441;-71
2021/07/27 10:43:41;;;;;;;4.67;4.37;;;31.30;86.90;;;;;;5053713;28;20526;-71
2021/07/27 10:46:10;;;;;;;4.40;4.00;;;31.20;88.50;;;;;;5053024;28;20888;-71
2021/07/27 10:48:38;;;;;;;4.60;4.20;;;31.40;86.10;;;;;;5053116;28;20505;-71
2021/07/27 10:51:05;;;;;;;4.50;4.10;;;31.00;84.20;;;;;;5053496;28;20448;-71
2021/07/27 10:53:35;;;;;;;4.10;3.70;;;30.40;86.20;;;;;;5053486;28;20488;-72
2021/07/27 10:56:04;;;;;;;4.50;4.10;;;29.60;92.10;;;;;;5053131;28;20556;-71
2021/07/27 10:58:31;;;;;;;4.07;3.77;;;29.30;90.90;;;;;;5055938;28;20550;-71
2021/07/27 11:01:11;;;;;;;4.27;3.97;;;29.10;90.10;;;;;;5057876;28;20780;-71
2021/07/27 11:03:40;;;;;;;4.00;3.67;;;29.10;89.30;;;;;;5057527;28;20441;-71
2021/07/27 11:06:08;;;;;;;3.73;3.43;;;29.20;87.40;;;;;;5057117;28;20501;-71
2021/07/27 11:08:36;;;;;;;4.07;3.77;;;29.20;90.90;;;;;;5057730;28;20452;-71
2021/07/27 11:11:07;;;;;;;4.33;4.00;;;29.20;85.90;;;;;;5057607;28;20533;-71
2021/07/27 11:13:35;;;;;;;4.20;3.80;;;29.20;85.90;;;;;;5057109;28;20572;-71
2021/07/27 11:16:02;;;;;;;4.30;3.90;;;29.00;87.50;;;;;;5057059;28;20553;-71
2021/07/27 11:18:30;;;;;;;4.80;4.40;;;28.70;91.30;;;;;;5057049;28;20914;-72
2021/07/27 11:20:59;;;;;;;4.20;3.80;;;28.40;87.10;;;;;;5057177;28;20538;-71
2021/07/27 11:23:32;;;;;;;4.60;4.20;;;28.30;91.10;;;;;;5057405;28;20442;-72
2021/07/27 11:26:01;;;;;;;4.77;4.37;;;28.30;91.70;;;;;;5056654;28;20477;-72
2021/07/27 11:28:35;;;;;;;4.30;4.00;;;28.30;92.30;;;;;;5056972;28;20851;-72
2021/07/27 11:31:03;;;;;;;5.30;3.97;;;28.50;90.70;;;;;;5057077;28;20474;-71
2021/07/27 11:33:30;;;;;;;3.80;3.50;;;28.20;90.00;;;;;;5056627;28;20483;-72
2021/07/27 11:35:59;;;;;;;4.07;3.70;;;28.20;88.30;;;;;;5056245;28;20467;-71
2021/07/27 11:38:28;;;;;;;4.10;3.57;;;28.10;91.90;;;;;;5056736;28;20512;-71
2021/07/27 11:41:07;;;;;;;3.77;3.47;;;28.00;91.80;;;;;;5056659;28;20446;-71
2021/07/27 11:43:35;;;;;;;3.70;3.40;;;27.80;90.60;;;;;;5056826;28;20435;-72
2021/07/27 11:46:06;;;;;;;4.17;3.77;;;27.60;88.40;;;;;;5056614;28;20461;-70
2021/07/27 11:48:34;;;;;;;4.30;3.73;;;27.00;90.00;;;;;;5056627;28;20432;-72
2021/07/27 11:51:01;;;;;;;3.90;3.50;;;26.20;92.40;;;;;;5056892;28;20446;-71
2021/07/27 11:53:31;;;;;;;4.20;3.80;;;26.00;92.30;;;;;;5056401;28;20571;-71
2021/07/27 11:56:09;;;;;;;3.70;3.40;;;25.90;93.50;;;;;;5056378;28;20947;-71
2021/07/27 11:58:37;;;;;;;4.10;3.53;;;25.70;95.10;;;;;;5056903;28;20452;-71
2021/07/27 12:01:04;;;;;;;3.97;3.57;;;25.60;97.40;;;;;;5056690;28;20442;-71
2021/07/27 12:03:31;;;;;;;4.70;4.30;;;25.80;97.00;;;;;;5056647;28;20533;-71
2021/07/27 12:05:58;;;;;;;4.50;4.10;;;25.70;94.70;;;;;;5055822;28;20548;-70
2021/07/27 12:08:25;;;;;;;4.50;4.07;;;25.70;97.30;;;;;;5056270;28;20454;-71
2021/07/27 12:10:52;;;;;;;4.60;4.00;;;25.60;95.40;;;;;;5055550;28;20448;-71
2021/07/27 12:13:18;;;;;;;4.23;3.80;;;25.50;97.80;;;;;;5056378;28;20572;-70
2021/07/27 12:15:47;;;;;;;4.43;4.03;;;25.60;99.90;;;;;;5056174;28;20784;-70
2021/07/27 12:18:15;;;;;;;4.80;3.93;;;25.70;98.30;;;;;;5056427;28;20449;-71
2021/07/27 12:20:42;;;;;;;4.13;3.70;;;25.90;99.90;;;;;;5055819;28;20442;-71
2021/07/27 12:23:08;;;;;;;4.00;3.60;;;25.90;98.60;;;;;;5055891;28;20450;-71
2021/07/27 12:25:35;;;;;;;4.00;3.70;;;26.00;99.90;;;;;;5055448;28;20536;-70
2021/07/27 12:28:02;;;;;;;4.17;3.77;;;26.00;99.20;;;;;;5056028;28;20454;-70
2021/07/27 12:30:30;;;;;;;3.90;3.60;;;25.80;99.90;;;;;;5056216;28;20434;-71
2021/07/27 12:32:58;;;;;;;4.23;3.83;;;25.70;96.10;;;;;;5056141;28;20938;-71
2021/07/27 12:35:25;;;;;;;3.50;3.20;;;25.70;98.00;;;;;;5055217;28;20446;-71
2021/07/27 12:37:52;;;;;;;4.00;3.70;;;25.80;99.90;;;;;;5055926;28;20470;-71
2021/07/27 12:40:18;;;;;;;4.07;3.77;;;25.90;99.90;;;;;;5055686;28;20446;-71
2021/07/27 12:42:45;;;;;;;3.83;3.53;;;26.00;99.90;;;;;;5055855;28;20528;-71
2021/07/27 12:45:13;;;;;;;3.20;2.97;;;26.30;99.90;;;;;;5055322;28;20939;-71
2021/07/27 12:47:39;;;;;;;3.40;3.10;;;26.50;94.40;;;;;;5055568;28;20488;-71
2021/07/27 12:50:09;;;;;;;4.53;3.47;;;26.70;93.00;;;;;;5055581;28;20446;-70
2021/07/27 12:52:36;;;;;;;4.17;3.60;;;26.90;93.50;;;;;;5055590;28;20446;-70
2021/07/27 12:55:03;;;;;;;4.23;3.80;;;27.10;92.00;;;;;;5055188;28;20488;-70
2021/07/27 12:57:31;;;;;;;3.20;3.00;;;27.30;93.90;;;;;;5055746;28;20466;-71
2021/07/27 13:00:01;;;;;;;3.30;3.00;;;27.40;90.80;;;;;;5055607;28;20540;-71
2021/07/27 13:02:28;;;;;;;3.23;2.93;;;27.40;91.20;;;;;;5055228;28;20540;-71
2021/07/27 13:04:55;;;;;;;3.00;2.80;;;27.40;93.00;;;;;;5055118;28;20470;-71
2021/07/27 13:07:23;;;;;;;3.47;3.17;;;27.50;90.70;;;;;;5055507;28;20472;-71
2021/07/27 13:09:50;;;;;;;3.50;3.20;;;27.40;92.90;;;;;;5055268;28;20537;-70
2021/07/27 13:12:16;;;;;;;3.60;3.30;;;27.30;91.70;;;;;;5055384;28;20533;-71
2021/07/27 13:14:43;;;;;;;2.97;2.70;;;27.30;94.00;;;;;;5054608;28;20568;-70